createdAt,value
2018-09-02T00:00:58.243Z,19.34
2018-09-02T00:03:26.347Z,19.29
2018-09-02T00:05:54.499Z,19.23
2018-09-02T00:08:22.623Z,19.06
2018-09-02T00:10:51.513Z,19.09
2018-09-02T00:13:19.659Z,19.20
2018-09-02T00:15:47.780Z,18.96
2018-09-02T00:18:15.912Z,19.01
2018-09-02T00:20:44.087Z,19.06
2018-09-02T00:23:12.499Z,18.81
2018-09-02T00:25:41.090Z,18.88
2018-09-02T00:28:09.319Z,18.74
2018-09-02T00:30:37.414Z,18.95
2018-09-02T00:33:05.610Z,18.91
2018-09-02T00:35:33.650Z,18.79
2018-09-02T00:38:02.096Z,18.78
2018-09-02T00:40:30.147Z,18.81
2018-09-02T00:42:58.473Z,18.73
2018-09-02T00:45:26.677Z,18.75
2018-09-02T00:47:54.866Z,18.68
2018-09-02T00:50:22.990Z,18.73
2018-09-02T00:52:51.097Z,18.79
2018-09-02T00:55:19.175Z,18.62
2018-09-02T00:57:47.295Z,18.60
2018-09-02T01:00:15.349Z,18.79
2018-09-02T01:02:43.443Z,18.63
2018-09-02T01:05:12.573Z,18.54
2018-09-02T01:07:40.856Z,18.59
2018-09-02T01:10:09.089Z,18.53
2018-09-02T01:12:37.277Z,18.54
2018-09-02T01:15:05.399Z,18.58
2018-09-02T01:17:33.577Z,18.55
2018-09-02T01:20:01.615Z,18.40
2018-09-02T01:22:29.708Z,18.52
2018-09-02T01:24:57.764Z,18.38
2018-09-02T01:27:25.859Z,18.48
2018-09-02T01:29:53.998Z,18.39
2018-09-02T01:32:22.083Z,18.41
2018-09-02T01:34:50.155Z,18.43
2018-09-02T01:37:19.342Z,18.36
2018-09-02T01:39:48.107Z,18.29
2018-09-02T01:42:16.480Z,18.26
2018-09-02T01:44:44.609Z,18.29
2018-09-02T01:47:12.887Z,18.35
2018-09-02T01:49:40.989Z,18.27
2018-09-02T01:52:09.125Z,18.22
2018-09-02T01:54:37.207Z,18.30
2018-09-02T01:57:05.308Z,18.31
2018-09-02T01:59:33.364Z,18.29
2018-09-02T02:02:01.464Z,18.35
2018-09-02T02:04:33.949Z,18.33
2018-09-02T02:07:02.457Z,18.25
2018-09-02T02:09:30.522Z,18.22
2018-09-02T02:11:58.580Z,18.30
2018-09-02T02:14:27.138Z,18.25
2018-09-02T02:16:55.232Z,18.10
2018-09-02T02:19:23.959Z,18.22
2018-09-02T02:21:52.071Z,18.07
2018-09-02T02:24:20.174Z,18.28
2018-09-02T02:26:53.173Z,18.29
2018-09-02T02:29:21.367Z,18.27
2018-09-02T02:31:49.617Z,18.16
2018-09-02T02:34:17.738Z,18.03
2018-09-02T02:36:46.068Z,18.11
2018-09-02T02:39:14.291Z,18.31
2018-09-02T02:41:43.674Z,18.14
2018-09-02T02:44:12.172Z,18.18
2018-09-02T02:46:40.412Z,18.19
2018-09-02T02:49:08.803Z,18.25
2018-09-02T02:51:37.511Z,18.29
2018-09-02T02:54:05.873Z,18.15
2018-09-02T02:56:34.064Z,18.10
2018-09-02T02:59:02.225Z,18.19
2018-09-02T03:01:30.419Z,18.21
2018-09-02T03:03:58.615Z,18.19
2018-09-02T03:06:27.974Z,18.11
2018-09-02T03:08:56.078Z,17.98
2018-09-02T03:11:24.436Z,18.06
2018-09-02T03:13:52.624Z,18.05
2018-09-02T03:16:20.709Z,17.96
2018-09-02T03:18:48.811Z,18.00
2018-09-02T03:21:16.991Z,17.96
2018-09-02T03:23:45.096Z,18.05
2018-09-02T03:26:13.301Z,18.10
2018-09-02T03:28:41.487Z,18.02
2018-09-02T03:31:09.597Z,18.09
2018-09-02T03:33:38.009Z,18.14
2018-09-02T03:44:43.681Z,18.02
2018-09-02T03:47:11.819Z,18.14
2018-09-02T03:52:17.247Z,18.06
2018-09-02T03:54:45.909Z,18.22
2018-09-02T03:57:14.050Z,18.02
2018-09-02T03:59:44.961Z,18.24
2018-09-02T04:04:37.282Z,18.12
2018-09-02T04:07:05.456Z,18.01
2018-09-02T04:09:33.594Z,18.05
2018-09-02T04:12:01.703Z,18.05
2018-09-02T04:14:29.830Z,18.04
2018-09-02T04:16:58.032Z,17.93
2018-09-02T04:19:26.148Z,17.90
2018-09-02T04:21:54.292Z,18.01
2018-09-02T04:24:22.501Z,18.00
2018-09-02T04:26:50.603Z,18.02
2018-09-02T04:29:18.724Z,17.94
2018-09-02T04:31:46.914Z,18.03
2018-09-02T04:34:36.620Z,18.01
2018-09-02T04:37:04.679Z,17.98
2018-09-02T04:39:32.763Z,17.98
2018-09-02T04:42:00.864Z,17.83
2018-09-02T04:44:29.600Z,17.94
2018-09-02T04:46:57.770Z,17.95
2018-09-02T04:49:26.037Z,17.71
2018-09-02T04:51:54.229Z,17.80
2018-09-02T04:54:22.419Z,17.78
2018-09-02T04:56:50.595Z,17.57
2018-09-02T04:59:19.036Z,17.77
2018-09-02T05:01:47.385Z,17.66
2018-09-02T05:04:15.591Z,17.61
2018-09-02T05:06:44.621Z,17.65
2018-09-02T05:09:12.712Z,17.67
2018-09-02T05:11:40.828Z,17.74
2018-09-02T05:14:09.147Z,17.69
2018-09-02T05:16:37.128Z,17.62
2018-09-02T05:19:05.318Z,17.70
2018-09-02T05:21:33.518Z,17.73
2018-09-02T05:24:01.808Z,17.74
2018-09-02T05:26:30.144Z,17.70
2018-09-02T05:28:58.244Z,17.74
2018-09-02T05:31:26.716Z,17.56
2018-09-02T05:33:54.829Z,17.75
2018-09-02T05:36:22.941Z,17.51
2018-09-02T05:38:51.054Z,17.63
2018-09-02T05:41:19.220Z,17.68
2018-09-02T05:43:48.193Z,17.92
2018-09-02T05:46:16.423Z,17.90
2018-09-02T05:48:44.553Z,17.93
2018-09-02T05:51:12.736Z,17.91
2018-09-02T05:53:40.898Z,17.61
2018-09-02T05:56:09.095Z,17.54
2018-09-02T05:58:37.335Z,17.58
2018-09-02T06:01:05.449Z,17.91
2018-09-02T06:03:33.784Z,17.78
2018-09-02T06:06:01.976Z,17.90
2018-09-02T06:08:30.065Z,18.01
2018-09-02T06:10:58.189Z,17.93
2018-09-02T06:13:27.929Z,17.93
2018-09-02T06:15:56.155Z,17.88
2018-09-02T06:18:24.277Z,18.07
2018-09-02T06:20:52.472Z,18.14
2018-09-02T06:23:20.626Z,18.19
2018-09-02T06:25:48.781Z,17.94
2018-09-02T06:28:17.811Z,18.15
2018-09-02T06:30:46.930Z,18.15
2018-09-02T06:33:16.933Z,18.07
2018-09-02T06:35:45.276Z,18.31
2018-09-02T06:38:14.247Z,18.04
2018-09-02T06:40:42.380Z,18.24
2018-09-02T06:43:10.480Z,18.22
2018-09-02T06:45:38.818Z,18.32
2018-09-02T06:48:07.088Z,18.27
2018-09-02T06:50:35.211Z,18.22
2018-09-02T06:53:03.319Z,18.22
2018-09-02T06:55:31.481Z,18.17
2018-09-02T06:57:59.557Z,18.37
2018-09-02T07:00:27.739Z,18.35
2018-09-02T07:02:55.891Z,18.63
2018-09-02T07:05:24.991Z,18.46
2018-09-02T07:07:53.079Z,18.57
2018-09-02T07:10:21.271Z,18.82
2018-09-02T07:12:50.371Z,18.66
2018-09-02T07:15:18.610Z,18.60
2018-09-02T07:17:46.759Z,18.66
2018-09-02T07:20:15.123Z,18.81
2018-09-02T07:22:43.209Z,18.81
2018-09-02T07:25:11.326Z,18.83
2018-09-02T07:27:39.508Z,18.88
2018-09-02T07:30:07.631Z,18.75
2018-09-02T07:32:35.700Z,18.68
2018-09-02T07:35:03.880Z,18.86
2018-09-02T07:37:31.977Z,18.97
2018-09-02T07:40:00.152Z,18.70
2018-09-02T07:42:33.253Z,18.64
2018-09-02T07:45:01.415Z,18.66
2018-09-02T07:47:29.565Z,18.62
2018-09-02T07:49:58.570Z,18.81
2018-09-02T07:52:26.874Z,19.02
2018-09-02T07:54:55.465Z,19.12
2018-09-02T07:57:23.562Z,19.23
2018-09-02T07:59:51.672Z,19.37
2018-09-02T08:02:19.805Z,19.26
2018-09-02T08:04:47.983Z,19.25
2018-09-02T08:07:16.149Z,19.58
2018-09-02T08:09:44.572Z,19.68
2018-09-02T08:12:12.708Z,19.56
2018-09-02T08:14:41.189Z,19.47
2018-09-02T08:17:09.263Z,19.30
2018-09-02T08:19:37.500Z,19.25
2018-09-02T08:22:05.831Z,19.34
2018-09-02T08:24:33.940Z,19.40
2018-09-02T08:27:02.062Z,19.57
2018-09-02T08:29:30.730Z,19.77
2018-09-02T08:31:58.972Z,20.14
2018-09-02T08:34:27.113Z,20.38
2018-09-02T08:36:55.253Z,20.41
2018-09-02T08:39:23.388Z,20.92
2018-09-02T08:41:51.556Z,20.92
2018-09-02T08:44:20.534Z,20.92
2018-09-02T08:46:49.108Z,21.28
2018-09-02T08:49:17.248Z,21.39
2018-09-02T08:51:45.337Z,21.18
2018-09-02T08:54:13.647Z,20.83
2018-09-02T08:56:41.760Z,20.67
2018-09-02T08:59:09.924Z,20.43
2018-09-02T09:01:38.110Z,20.90
2018-09-02T09:04:06.164Z,20.80
2018-09-02T09:06:34.289Z,20.88
2018-09-02T09:09:03.273Z,20.89
2018-09-02T09:11:31.084Z,21.35
2018-09-02T09:13:59.377Z,21.51
2018-09-02T09:16:27.491Z,21.58
2018-09-02T09:18:55.611Z,21.66
2018-09-02T09:21:23.809Z,21.70
2018-09-02T09:23:52.283Z,21.81
2018-09-02T09:26:21.496Z,21.84
2018-09-02T09:28:49.653Z,21.85
2018-09-02T09:31:17.852Z,21.88
2018-09-02T09:33:45.964Z,21.98
2018-09-02T09:36:15.306Z,21.96
2018-09-02T09:38:43.429Z,22.23
2018-09-02T09:41:11.971Z,22.75
2018-09-02T09:43:40.403Z,22.98
2018-09-02T09:46:08.701Z,22.97
2018-09-02T09:48:36.705Z,23.20
2018-09-02T09:51:05.298Z,22.94
2018-09-02T09:53:34.212Z,22.84
2018-09-02T09:56:03.057Z,22.81
2018-09-02T09:58:31.591Z,22.63
2018-09-02T10:01:00.043Z,22.57
2018-09-02T10:03:28.261Z,22.68
2018-09-02T10:05:56.491Z,22.49
2018-09-02T10:08:24.578Z,22.59
2018-09-02T10:10:52.720Z,22.52
2018-09-02T10:13:21.346Z,22.53
2018-09-02T10:15:49.507Z,22.57
2018-09-02T10:18:17.796Z,22.15
2018-09-02T10:20:45.863Z,22.20
2018-09-02T10:23:14.115Z,22.16
2018-09-02T10:25:42.271Z,21.89
2018-09-02T10:28:10.868Z,21.95
2018-09-02T10:30:38.988Z,21.94
2018-09-02T10:33:07.255Z,21.86
2018-09-02T10:35:35.429Z,21.66
2018-09-02T10:38:03.720Z,21.95
2018-09-02T10:40:31.997Z,22.07
2018-09-02T10:43:00.251Z,22.08
2018-09-02T10:45:28.374Z,22.30
2018-09-02T10:47:57.073Z,22.51
2018-09-02T10:50:25.280Z,23.12
2018-09-02T10:52:54.279Z,23.51
2018-09-02T10:55:22.658Z,23.54
2018-09-02T10:57:50.893Z,23.79
2018-09-02T11:00:19.278Z,23.74
2018-09-02T11:02:47.361Z,23.65
2018-09-02T11:05:15.523Z,23.47
2018-09-02T11:07:43.704Z,23.60
2018-09-02T11:10:12.828Z,23.27
2018-09-02T11:12:40.947Z,22.93
2018-09-02T11:15:09.883Z,22.76
2018-09-02T11:17:38.011Z,22.65
2018-09-02T11:20:06.440Z,22.80
2018-09-02T11:22:34.537Z,22.94
2018-09-02T11:25:02.754Z,22.92
2018-09-02T11:27:30.869Z,23.02
2018-09-02T11:29:59.297Z,22.65
2018-09-02T11:32:27.523Z,22.61
2018-09-02T11:34:56.035Z,22.72
2018-09-02T11:37:24.208Z,22.59
2018-09-02T11:40:16.890Z,22.71
2018-09-02T11:44:37.215Z,22.87
2018-09-02T11:47:05.325Z,22.93
2018-09-02T11:49:33.376Z,22.76
2018-09-02T11:52:01.483Z,22.69
2018-09-02T11:54:29.675Z,23.00
2018-09-02T11:56:58.000Z,23.11
2018-09-02T11:59:26.041Z,23.11
2018-09-02T12:01:54.464Z,23.41
2018-09-02T12:04:22.596Z,23.90
2018-09-02T12:06:50.803Z,25.22
2018-09-02T12:09:19.073Z,24.69
2018-09-02T12:11:47.270Z,24.63
2018-09-02T12:14:16.510Z,24.77
2018-09-02T12:16:45.660Z,25.00
2018-09-02T12:19:13.739Z,24.33
2018-09-02T12:21:42.016Z,24.01
2018-09-02T12:24:10.116Z,24.11
2018-09-02T12:26:38.207Z,24.20
2018-09-02T12:29:06.430Z,23.90
2018-09-02T12:31:34.578Z,23.68
2018-09-02T12:34:02.694Z,23.45
2018-09-02T12:36:30.755Z,23.35
2018-09-02T12:38:59.203Z,23.20
2018-09-02T12:41:27.917Z,23.25
2018-09-02T12:43:56.058Z,23.24
2018-09-02T12:46:24.178Z,23.13
2018-09-02T12:48:52.247Z,23.19
2018-09-02T12:51:20.547Z,23.04
2018-09-02T12:53:48.619Z,23.30
2018-09-02T12:56:16.651Z,23.28
2018-09-02T12:58:44.755Z,23.27
2018-09-02T13:01:13.086Z,23.08
2018-09-02T13:03:41.774Z,22.95
2018-09-02T13:06:10.166Z,22.96
2018-09-02T13:08:38.272Z,22.69
2018-09-02T13:11:07.045Z,22.73
2018-09-02T13:13:35.180Z,22.60
2018-09-02T13:16:03.216Z,22.50
2018-09-02T13:18:31.363Z,22.61
2018-09-02T13:20:59.461Z,22.63
2018-09-02T13:23:28.276Z,22.59
2018-09-02T13:25:56.629Z,22.57
2018-09-02T13:28:25.404Z,22.68
2018-09-02T13:30:53.476Z,22.83
2018-09-02T13:33:21.957Z,22.56
2018-09-02T13:35:50.145Z,22.82
2018-09-02T13:38:18.359Z,22.92
2018-09-02T13:40:47.388Z,22.75
2018-09-02T13:43:19.390Z,22.84
2018-09-02T13:45:47.515Z,22.98
2018-09-02T13:48:16.107Z,22.98
2018-09-02T13:50:44.167Z,22.92
2018-09-02T13:53:12.272Z,22.85
2018-09-02T13:55:40.987Z,22.59
2018-09-02T13:58:09.078Z,22.73
2018-09-02T14:00:37.157Z,22.48
2018-09-02T14:03:05.484Z,22.45
2018-09-02T14:05:33.963Z,22.62
2018-09-02T14:08:02.340Z,22.54
2018-09-02T14:10:30.442Z,22.30
2018-09-02T14:12:58.521Z,22.20
2018-09-02T14:15:26.863Z,22.17
2018-09-02T14:17:54.963Z,22.14
2018-09-02T14:20:23.109Z,21.96
2018-09-02T14:22:51.253Z,22.10
2018-09-02T14:25:19.349Z,22.06
2018-09-02T14:27:47.420Z,22.07
2018-09-02T14:30:16.370Z,22.00
2018-09-02T14:32:44.499Z,21.95
2018-09-02T14:35:12.580Z,21.74
2018-09-02T14:37:40.925Z,21.81
2018-09-02T14:40:11.797Z,21.67
2018-09-02T14:42:39.864Z,21.69
2018-09-02T14:45:07.985Z,21.73
2018-09-02T14:47:36.148Z,21.73
2018-09-02T14:50:04.420Z,21.80
2018-09-02T14:52:32.554Z,21.81
2018-09-02T14:55:00.671Z,21.72
2018-09-02T14:57:28.796Z,21.72
2018-09-02T14:59:56.986Z,21.62
2018-09-02T15:02:25.055Z,21.62
2018-09-02T15:04:53.171Z,21.48
2018-09-02T15:07:21.316Z,21.53
2018-09-02T15:09:49.416Z,21.33
2018-09-02T15:12:17.547Z,21.25
2018-09-02T15:14:46.587Z,21.38
2018-09-02T15:17:14.696Z,21.32
2018-09-02T15:19:42.805Z,21.36
2018-09-02T15:22:10.911Z,21.42
2018-09-02T15:24:39.213Z,21.38
2018-09-02T15:27:07.304Z,21.22
2018-09-02T15:29:36.600Z,21.23
2018-09-02T15:32:04.752Z,21.26
2018-09-02T15:34:32.992Z,21.24
2018-09-02T15:37:01.212Z,21.22
2018-09-02T15:39:29.675Z,21.23
2018-09-02T15:41:57.756Z,21.12
2018-09-02T15:44:25.874Z,21.11
2018-09-02T15:46:54.045Z,21.07
2018-09-02T15:49:22.260Z,20.94
2018-09-02T15:51:50.351Z,21.02
2018-09-02T15:54:18.504Z,21.04
2018-09-02T15:56:46.776Z,21.00
2018-09-02T15:59:15.005Z,21.04
2018-09-02T16:01:43.763Z,20.97
2018-09-02T16:04:12.362Z,21.02
2018-09-02T16:06:40.466Z,20.97
2018-09-02T16:09:10.043Z,20.87
2018-09-02T16:11:38.415Z,20.79
2018-09-02T16:14:06.774Z,20.82
2018-09-02T16:16:34.863Z,20.73
2018-09-02T16:19:03.013Z,20.78
2018-09-02T16:21:31.549Z,20.75
2018-09-02T16:23:59.735Z,20.80
2018-09-02T16:26:27.871Z,20.77
2018-09-02T16:28:56.059Z,20.71
2018-09-02T16:31:24.158Z,20.82
2018-09-02T16:33:52.545Z,20.71
2018-09-02T16:36:20.914Z,20.76
2018-09-02T16:38:49.031Z,20.79
2018-09-02T16:41:17.335Z,20.77
2018-09-02T16:43:45.514Z,20.63
2018-09-02T16:46:13.762Z,20.75
2018-09-02T16:48:41.899Z,20.72
2018-09-02T16:51:10.009Z,20.69
2018-09-02T16:53:38.099Z,20.69
2018-09-02T16:56:06.653Z,20.57
2018-09-02T16:58:35.391Z,20.65
2018-09-02T17:01:03.380Z,20.57
2018-09-02T17:03:34.496Z,20.61
2018-09-02T17:06:02.673Z,20.60
2018-09-02T17:08:30.680Z,20.52
2018-09-02T17:10:58.832Z,20.50
2018-09-02T17:13:26.913Z,20.44
2018-09-02T17:15:55.307Z,20.43
2018-09-02T17:18:24.517Z,20.44
2018-09-02T17:20:53.183Z,20.44
2018-09-02T17:23:21.299Z,20.39
2018-09-02T17:25:49.534Z,20.38
2018-09-02T17:28:17.995Z,20.37
2018-09-02T17:30:46.140Z,20.26
2018-09-02T17:33:14.980Z,20.39
2018-09-02T17:35:43.399Z,20.23
2018-09-02T17:38:11.729Z,20.23
2018-09-02T17:40:39.816Z,20.18
2018-09-02T17:43:08.077Z,20.21
2018-09-02T17:45:36.179Z,20.20
2018-09-02T17:48:05.113Z,20.24
2018-09-02T17:50:33.199Z,20.18
2018-09-02T17:53:01.231Z,20.13
2018-09-02T17:55:29.380Z,20.09
2018-09-02T17:58:00.289Z,20.10
2018-09-02T18:00:33.555Z,20.21
2018-09-02T18:03:01.684Z,20.19
2018-09-02T18:05:29.825Z,20.17
2018-09-02T18:07:57.943Z,20.19
2018-09-02T18:10:26.075Z,20.09
2018-09-02T18:12:54.187Z,19.95
2018-09-02T18:15:22.299Z,20.06
2018-09-02T18:17:50.404Z,20.05
2018-09-02T18:20:18.561Z,20.05
2018-09-02T18:22:47.857Z,20.07
2018-09-02T18:25:16.039Z,20.09
2018-09-02T18:27:46.880Z,19.98
2018-09-02T18:30:15.071Z,19.98
2018-09-02T18:32:43.171Z,19.92
2018-09-02T18:35:11.255Z,20.01
2018-09-02T18:37:39.412Z,20.03
2018-09-02T18:40:07.490Z,19.92
2018-09-02T18:42:36.315Z,19.96
2018-09-02T18:45:04.543Z,19.93
2018-09-02T18:47:32.636Z,20.00
2018-09-02T18:50:00.699Z,20.02
2018-09-02T18:52:28.819Z,20.03
2018-09-02T18:54:56.919Z,19.98
2018-09-02T18:57:25.129Z,19.96
2018-09-02T18:59:53.220Z,19.96
2018-09-02T19:02:21.335Z,19.95
2018-09-02T19:04:49.395Z,19.94
2018-09-02T19:07:17.668Z,19.93
2018-09-02T19:09:45.777Z,19.82
2018-09-02T19:12:13.835Z,19.89
2018-09-02T19:14:41.960Z,19.94
2018-09-02T19:17:10.073Z,19.81
2018-09-02T19:19:38.124Z,19.86
2018-09-02T19:22:06.441Z,19.81
2018-09-02T19:24:35.096Z,19.80
2018-09-02T19:27:03.236Z,19.86
2018-09-02T19:29:31.493Z,19.76
2018-09-02T19:31:59.591Z,19.69
2018-09-02T19:34:27.655Z,19.76
2018-09-02T19:36:55.821Z,19.62
2018-09-02T19:39:23.924Z,19.65
2018-09-02T19:41:52.054Z,19.67
2018-09-02T19:44:20.213Z,19.61
2018-09-02T19:46:48.371Z,19.69
2018-09-02T19:49:16.435Z,19.58
2018-09-02T19:51:44.602Z,19.57
2018-09-02T19:54:12.760Z,19.62
2018-09-02T19:56:40.957Z,19.60
2018-09-02T19:59:09.033Z,19.55
2018-09-02T20:01:37.139Z,19.63
2018-09-02T20:04:05.324Z,19.56
2018-09-02T20:06:34.048Z,19.51
2018-09-02T20:09:02.264Z,19.61
2018-09-02T20:11:30.380Z,19.58
2018-09-02T20:13:58.509Z,19.64
2018-09-02T20:16:26.633Z,19.59
2018-09-02T20:18:54.703Z,19.58
2018-09-02T20:21:22.840Z,19.49
2018-09-02T20:23:50.924Z,19.45
2018-09-02T20:26:19.455Z,19.50
2018-09-02T20:28:48.207Z,19.49
2018-09-02T20:31:16.282Z,19.48
2018-09-02T20:33:44.379Z,19.55
2018-09-02T20:36:13.167Z,19.48
2018-09-02T20:38:41.273Z,19.46
2018-09-02T20:41:09.379Z,19.36
2018-09-02T20:43:37.492Z,19.43
2018-09-02T20:46:05.779Z,19.48
2018-09-02T20:48:33.903Z,19.50
2018-09-02T20:51:02.100Z,19.37
2018-09-02T20:53:30.122Z,19.46
2018-09-02T20:55:58.167Z,19.49
2018-09-02T20:58:26.211Z,19.48
2018-09-02T21:00:54.334Z,19.45
2018-09-02T21:03:22.427Z,19.34
2018-09-02T21:05:50.485Z,19.37
2018-09-02T21:08:18.670Z,19.40
2018-09-02T21:10:46.774Z,19.36
2018-09-02T21:13:14.982Z,19.34
2018-09-02T21:15:43.224Z,19.24
2018-09-02T21:18:11.387Z,19.23
2018-09-02T21:20:39.519Z,19.29
2018-09-02T21:23:07.626Z,19.33
2018-09-02T21:25:35.712Z,19.30
2018-09-02T21:28:03.793Z,19.33
2018-09-02T21:30:31.972Z,19.35
2018-09-02T21:33:00.429Z,19.35
2018-09-02T21:35:28.512Z,19.33
2018-09-02T21:37:56.638Z,19.23
2018-09-02T21:40:24.883Z,19.29
2018-09-02T21:42:53.028Z,19.16
2018-09-02T21:45:21.175Z,19.26
2018-09-02T21:47:49.280Z,19.33
2018-09-02T21:50:17.419Z,19.30
2018-09-02T21:52:45.702Z,19.31
2018-09-02T21:55:13.860Z,19.31
2018-09-02T21:57:41.939Z,19.27
2018-09-02T22:00:13.112Z,19.29
2018-09-02T22:02:41.298Z,19.24
2018-09-02T22:05:11.219Z,19.21
2018-09-02T22:07:40.111Z,19.12
2018-09-02T22:10:08.473Z,19.11
2018-09-02T22:12:36.537Z,19.20
2018-09-02T22:15:05.232Z,19.22
2018-09-02T22:17:33.308Z,19.21
2018-09-02T22:20:01.527Z,19.26
2018-09-02T22:22:30.049Z,19.19
2018-09-02T22:24:58.120Z,19.19
2018-09-02T22:27:26.176Z,19.11
2018-09-02T22:29:54.379Z,19.06
2018-09-02T22:32:22.639Z,19.01
2018-09-02T22:34:50.712Z,19.11
2018-09-02T22:37:18.819Z,19.10
2018-09-02T22:39:46.982Z,19.03
2018-09-02T22:42:15.077Z,19.12
2018-09-02T22:44:43.159Z,19.09
2018-09-02T22:47:12.122Z,19.13
2018-09-02T22:49:40.220Z,19.09
2018-09-02T22:52:08.877Z,19.05
2018-09-02T22:54:36.963Z,19.16
2018-09-02T22:57:05.291Z,19.05
2018-09-02T22:59:33.396Z,19.02
2018-09-02T23:02:01.540Z,19.03
2018-09-02T23:04:29.691Z,19.07
2018-09-02T23:06:58.100Z,19.00
2018-09-02T23:09:26.497Z,18.97
2018-09-02T23:11:54.802Z,19.05
2018-09-02T23:14:23.134Z,18.87
2018-09-02T23:16:51.189Z,18.93
2018-09-02T23:19:24.764Z,18.93
2018-09-02T23:21:52.766Z,18.91
2018-09-02T23:24:21.700Z,18.93
2018-09-02T23:26:49.802Z,18.88
2018-09-02T23:29:18.902Z,18.96
2018-09-02T23:31:47.045Z,18.99
2018-09-02T23:34:15.425Z,18.97
2018-09-02T23:36:43.639Z,18.92
2018-09-02T23:39:12.794Z,18.86
2018-09-02T23:41:41.083Z,18.81
2018-09-02T23:44:10.116Z,18.79
2018-09-02T23:46:38.233Z,18.77
2018-09-02T23:49:06.627Z,18.76
2018-09-02T23:51:34.747Z,18.77
2018-09-02T23:54:02.868Z,18.74
2018-09-02T23:56:30.964Z,18.68
2018-09-02T23:58:59.059Z,18.69
